createdAt,value
2022-11-13T04:03:02.988Z,5.03
2022-11-13T04:05:49.588Z,4.40
2022-11-13T04:08:35.759Z,4.40
2022-11-13T04:11:21.321Z,4.60
2022-11-13T04:14:06.868Z,4.67
2022-11-13T04:16:52.380Z,4.70
2022-11-13T04:19:39.388Z,5.23
2022-11-13T04:22:25.193Z,5.07
2022-11-13T04:25:10.524Z,5.20
2022-11-13T04:27:56.111Z,5.40
2022-11-13T04:30:42.250Z,5.20
2022-11-13T04:33:27.585Z,5.67
2022-11-13T04:36:14.671Z,4.93
2022-11-13T04:39:00.168Z,5.00
2022-11-13T04:42:04.101Z,4.83
2022-11-13T04:44:49.839Z,5.07
2022-11-13T04:47:35.595Z,4.53
2022-11-13T04:50:21.331Z,4.93
2022-11-13T04:53:08.341Z,5.07
2022-11-13T04:55:54.041Z,4.80
2022-11-13T04:58:39.522Z,4.50
2022-11-13T05:01:25.026Z,4.70
2022-11-13T05:04:12.765Z,4.70
2022-11-13T05:06:58.380Z,4.87
2022-11-13T05:09:45.213Z,4.60
2022-11-13T05:12:30.569Z,4.90
2022-11-13T05:15:16.427Z,4.80
2022-11-13T05:18:01.819Z,4.60
2022-11-13T05:20:47.501Z,4.60
2022-11-13T05:23:33.529Z,4.50
2022-11-13T05:26:20.555Z,4.60
2022-11-13T05:29:06.014Z,4.80
2022-11-13T05:31:51.313Z,4.23
2022-11-13T05:34:36.876Z,4.50
2022-11-13T05:37:22.419Z,4.60
2022-11-13T05:40:08.851Z,4.60
2022-11-13T05:42:55.863Z,4.30
2022-11-13T05:45:41.161Z,5.03
2022-11-13T05:48:27.083Z,4.93
2022-11-13T05:51:14.676Z,4.87
2022-11-13T05:54:00.802Z,5.00
2022-11-13T05:56:46.183Z,5.07
2022-11-13T05:59:32.716Z,4.70
2022-11-13T06:02:18.299Z,5.23
2022-11-13T06:05:04.363Z,5.20
2022-11-13T06:07:50.398Z,5.07
2022-11-13T06:10:36.141Z,4.67
2022-11-13T06:13:21.806Z,4.90
2022-11-13T06:16:10.728Z,5.10
2022-11-13T06:18:57.552Z,4.60
2022-11-13T06:21:42.926Z,4.80
2022-11-13T06:24:28.492Z,4.57
2022-11-13T06:27:14.028Z,4.80
2022-11-13T06:29:59.528Z,5.10
2022-11-13T06:32:52.193Z,5.00
2022-11-13T06:35:37.392Z,5.13
2022-11-13T06:38:22.818Z,5.40
2022-11-13T06:41:09.763Z,5.30
2022-11-13T06:43:59.877Z,4.73
2022-11-13T06:46:48.111Z,4.77
2022-11-13T06:49:35.197Z,4.90
2022-11-13T06:52:20.591Z,5.03
2022-11-13T06:55:06.462Z,5.30
2022-11-13T06:57:52.166Z,4.87
2022-11-13T07:00:40.095Z,6.00
2022-11-13T07:03:26.807Z,6.63
2022-11-13T07:06:16.090Z,6.50
2022-11-13T07:09:01.398Z,6.23
2022-11-13T07:11:47.096Z,6.30
2022-11-13T07:14:32.730Z,6.13
2022-11-13T07:17:18.321Z,6.30
2022-11-13T07:20:04.401Z,5.93
2022-11-13T07:22:54.623Z,4.73
2022-11-13T07:25:39.804Z,5.20
2022-11-13T07:28:25.865Z,5.30
2022-11-13T07:31:13.320Z,6.00
2022-11-13T07:33:58.975Z,6.80
2022-11-13T07:36:44.348Z,7.10
2022-11-13T07:39:31.226Z,6.13
2022-11-13T07:42:16.933Z,6.37
2022-11-13T07:45:02.642Z,7.17
2022-11-13T07:47:48.104Z,6.50
2022-11-13T07:50:36.068Z,6.63
2022-11-13T07:53:22.261Z,6.67
2022-11-13T07:56:09.461Z,6.70
2022-11-13T07:58:55.037Z,6.67
2022-11-13T08:01:40.773Z,7.20
2022-11-13T08:04:26.627Z,7.07
2022-11-13T08:07:13.197Z,6.03
2022-11-13T08:09:59.157Z,6.10
2022-11-13T08:12:46.138Z,5.90
2022-11-13T08:15:32.727Z,6.03
2022-11-13T08:18:18.272Z,6.20
2022-11-13T08:21:08.105Z,6.60
2022-11-13T08:23:57.483Z,6.77
2022-11-13T08:26:43.168Z,7.10
2022-11-13T08:29:30.059Z,7.20
2022-11-13T08:32:16.133Z,7.27
2022-11-13T08:35:01.736Z,7.63
2022-11-13T08:37:47.330Z,8.00
2022-11-13T08:40:33.261Z,6.13
2022-11-13T08:43:19.438Z,6.33
2022-11-13T08:46:06.925Z,5.53
2022-11-13T08:48:52.559Z,6.77
2022-11-13T08:51:37.897Z,6.47
2022-11-13T08:54:23.420Z,6.33
2022-11-13T08:57:09.110Z,6.03
2022-11-13T08:59:54.668Z,6.37
2022-11-13T09:02:41.857Z,6.57
2022-11-13T09:05:27.945Z,6.97
2022-11-13T09:08:13.318Z,6.37
2022-11-13T09:11:03.255Z,6.17
2022-11-13T09:13:52.934Z,7.00
2022-11-13T09:16:39.145Z,6.83
2022-11-13T09:19:26.324Z,7.07
2022-11-13T09:22:12.187Z,7.10
2022-11-13T09:24:57.357Z,6.37
2022-11-13T09:27:42.778Z,6.60
2022-11-13T09:30:29.500Z,6.63
2022-11-13T09:33:15.395Z,5.77
2022-11-13T09:36:02.617Z,5.57
2022-11-13T09:38:48.041Z,5.80
2022-11-13T09:41:38.266Z,6.00
2022-11-13T09:44:31.554Z,5.80
2022-11-13T09:47:21.292Z,5.77
2022-11-13T09:50:16.745Z,8.67
2022-11-13T09:53:04.808Z,5.97
2022-11-13T09:56:01.362Z,5.57
2022-11-13T09:58:51.425Z,6.37
2022-11-13T10:01:49.588Z,5.97
2022-11-13T10:04:47.333Z,6.20
2022-11-13T10:07:41.087Z,7.00
2022-11-13T10:10:56.263Z,7.20
2022-11-13T10:13:45.610Z,7.13
2022-11-13T10:16:34.212Z,7.63
2022-11-13T10:19:27.121Z,7.50
2022-11-13T10:22:33.393Z,7.37
2022-11-13T10:25:21.708Z,8.07
2022-11-13T10:28:43.281Z,8.63
2022-11-13T10:31:19.830Z,13.87
2022-11-13T10:34:06.327Z,7.40
2022-11-13T10:37:10.967Z,6.67
2022-11-13T10:39:56.475Z,6.33
2022-11-13T10:42:42.479Z,6.17
2022-11-13T10:45:29.649Z,6.37
2022-11-13T10:48:20.828Z,6.07
2022-11-13T10:51:24.346Z,6.00
2022-11-13T10:54:25.189Z,6.13
2022-11-13T10:57:25.255Z,6.07
2022-11-13T11:00:23.386Z,6.17
2022-11-13T11:03:14.458Z,6.00
2022-11-13T11:06:01.462Z,5.20
2022-11-13T11:08:47.159Z,5.30
2022-11-13T11:11:50.999Z,5.10
2022-11-13T11:14:41.854Z,5.50
2022-11-13T11:17:32.871Z,5.33
2022-11-13T11:20:25.544Z,6.33
2022-11-13T11:23:19.445Z,5.67
2022-11-13T11:26:12.739Z,5.80
2022-11-13T11:29:13.141Z,6.17
2022-11-13T11:32:04.681Z,5.77
2022-11-13T11:34:59.150Z,5.83
2022-11-13T11:37:54.068Z,5.50
2022-11-13T11:40:42.358Z,5.50
2022-11-13T11:43:37.721Z,5.60
2022-11-13T11:46:24.435Z,5.77
2022-11-13T11:49:10.909Z,5.70
2022-11-13T11:52:08.653Z,6.30
2022-11-13T11:55:04.899Z,5.80
2022-11-13T11:57:58.234Z,5.73
2022-11-13T12:00:50.464Z,5.60
2022-11-13T12:04:22.592Z,5.27
2022-11-13T12:07:21.971Z,5.70
2022-11-13T12:10:23.864Z,5.40
2022-11-13T12:13:25.228Z,6.00
2022-11-13T12:16:19.839Z,6.27
2022-11-13T12:19:16.365Z,5.90
2022-11-13T12:22:10.640Z,5.77
2022-11-13T12:25:10.120Z,6.40
2022-11-13T12:28:06.207Z,5.30
2022-11-13T12:31:02.577Z,5.60
2022-11-13T12:34:01.014Z,5.20
2022-11-13T12:36:47.558Z,5.50
2022-11-13T12:39:46.141Z,5.30
2022-11-13T12:42:35.809Z,5.43
2022-11-13T12:45:29.664Z,5.60
2022-11-13T12:48:26.085Z,5.67
2022-11-13T12:51:14.385Z,5.47
2022-11-13T12:54:00.208Z,5.27
2022-11-13T12:56:45.804Z,5.00
2022-11-13T12:59:34.159Z,5.33
2022-11-13T13:02:42.280Z,5.77
2022-11-13T13:05:41.058Z,5.30
2022-11-13T13:08:38.917Z,5.20
2022-11-13T13:11:32.664Z,4.37
2022-11-13T13:14:33.294Z,5.20
2022-11-13T13:17:21.207Z,5.20
2022-11-13T13:20:30.527Z,5.00
2022-11-13T13:23:27.301Z,4.80
2022-11-13T13:26:19.975Z,4.67
2022-11-13T13:29:16.456Z,5.50
2022-11-13T13:32:14.564Z,5.17
2022-11-13T13:35:11.732Z,5.23
2022-11-13T13:38:03.375Z,5.10
2022-11-13T13:41:20.537Z,5.47
2022-11-13T13:44:29.730Z,5.67
2022-11-13T13:47:27.060Z,5.27
2022-11-13T13:50:17.144Z,5.20
2022-11-13T13:53:05.036Z,5.37
2022-11-13T13:55:53.003Z,6.10
2022-11-13T13:58:40.059Z,6.70
2022-11-13T14:01:30.904Z,6.27
2022-11-13T14:04:20.786Z,5.70
2022-11-13T14:07:18.715Z,6.13
2022-11-13T14:10:14.368Z,5.93
2022-11-13T14:12:59.835Z,5.70
2022-11-13T14:15:45.386Z,5.63
2022-11-13T14:18:31.978Z,5.90
2022-11-13T14:21:21.076Z,6.03
2022-11-13T14:24:14.056Z,5.23
2022-11-13T14:27:04.266Z,5.40
2022-11-13T14:29:52.400Z,5.50
2022-11-13T14:32:45.715Z,5.43
2022-11-13T14:35:32.775Z,5.47
2022-11-13T14:38:21.340Z,5.10
2022-11-13T14:41:07.287Z,5.60
2022-11-13T14:43:54.352Z,4.97
2022-11-13T14:46:44.455Z,5.77
2022-11-13T14:49:31.886Z,5.40
2022-11-13T14:52:22.235Z,5.20
2022-11-13T14:55:23.679Z,4.57
2022-11-13T14:58:12.823Z,5.20
2022-11-13T15:01:11.832Z,4.90
2022-11-13T15:03:57.076Z,4.83
2022-11-13T15:06:42.611Z,4.60
2022-11-13T15:09:29.590Z,4.90
2022-11-13T15:12:14.788Z,4.90
2022-11-13T15:15:00.583Z,6.10
2022-11-13T15:17:48.970Z,7.10
2022-11-13T15:20:34.846Z,7.73
2022-11-13T15:23:28.400Z,6.80
2022-11-13T15:26:15.798Z,5.80
2022-11-13T15:29:03.018Z,6.07
2022-11-13T15:31:49.082Z,5.80
2022-11-13T15:34:36.203Z,6.27
2022-11-13T15:37:21.954Z,5.90
2022-11-13T15:40:08.580Z,5.90
2022-11-13T15:42:55.296Z,5.90
2022-11-13T15:45:44.179Z,5.70
2022-11-13T15:48:29.980Z,6.03
2022-11-13T15:51:20.713Z,6.80
2022-11-13T15:54:14.332Z,6.93
2022-11-13T15:57:00.047Z,6.37
2022-11-13T15:59:45.418Z,6.53
2022-11-13T16:02:31.770Z,6.23
2022-11-13T16:05:17.458Z,5.87
2022-11-13T16:08:11.978Z,7.07
2022-11-13T16:10:57.331Z,7.67
2022-11-13T16:13:44.478Z,8.73
2022-11-13T16:16:36.238Z,14.67
2022-11-13T16:19:23.948Z,11.23
2022-11-13T16:22:17.454Z,9.70
2022-11-13T16:25:05.198Z,10.40
2022-11-13T16:27:51.454Z,9.30
2022-11-13T16:30:37.031Z,10.33
2022-11-13T16:33:22.684Z,9.70
2022-11-13T16:36:13.656Z,9.47
2022-11-13T16:38:59.393Z,11.10
2022-11-13T16:41:46.458Z,11.30
2022-11-13T16:44:32.420Z,11.13
2022-11-13T16:47:22.309Z,11.63
2022-11-13T16:50:13.567Z,11.83
2022-11-13T16:52:59.435Z,12.10
2022-11-13T16:55:44.751Z,13.20
2022-11-13T16:58:31.797Z,12.40
2022-11-13T17:01:18.704Z,11.63
2022-11-13T17:04:04.905Z,11.70
2022-11-13T17:06:53.126Z,11.53
2022-11-13T17:09:42.107Z,11.30
2022-11-13T17:12:27.696Z,11.63
2022-11-13T17:15:14.670Z,11.57
2022-11-13T17:18:00.207Z,10.87
2022-11-13T17:20:46.160Z,11.00
2022-11-13T17:23:31.848Z,11.00
2022-11-13T17:26:17.541Z,12.43
2022-11-13T17:29:05.647Z,11.87
2022-11-13T17:31:52.169Z,13.63
2022-11-13T17:34:37.958Z,12.57
2022-11-13T17:37:25.236Z,11.90
2022-11-13T17:40:11.798Z,12.90
2022-11-13T17:42:57.346Z,12.87
2022-11-13T17:45:42.921Z,12.60
2022-11-13T17:48:33.227Z,10.47
2022-11-13T17:51:18.800Z,9.93
2022-11-13T17:54:04.312Z,9.30
2022-11-13T17:56:49.831Z,9.90
2022-11-13T17:59:35.297Z,10.43
2022-11-13T18:02:20.732Z,10.77
2022-11-13T18:05:09.857Z,10.40
2022-11-13T18:07:55.361Z,10.17
2022-11-13T18:10:42.226Z,10.73
2022-11-13T18:13:27.924Z,9.97
2022-11-13T18:16:15.867Z,10.47
2022-11-13T18:19:03.445Z,10.37
2022-11-13T18:21:50.230Z,10.93
2022-11-13T18:24:35.654Z,10.50
2022-11-13T18:27:21.149Z,10.83
2022-11-13T18:30:08.398Z,11.93
2022-11-13T18:32:53.874Z,11.00
2022-11-13T18:35:39.526Z,11.73
2022-11-13T18:38:26.276Z,10.83
2022-11-13T18:41:14.216Z,12.13
2022-11-13T18:43:59.587Z,10.80
2022-11-13T18:46:45.210Z,10.17
2022-11-13T18:49:30.508Z,11.10
2022-11-13T18:52:15.801Z,11.00
2022-11-13T18:55:03.082Z,14.80
2022-11-13T18:57:48.976Z,13.60
2022-11-13T19:00:34.637Z,13.23
2022-11-13T19:03:20.367Z,14.70
2022-11-13T19:06:06.898Z,13.37
2022-11-13T19:08:55.308Z,13.17
2022-11-13T19:11:43.057Z,12.53
2022-11-13T19:14:28.617Z,11.53
2022-11-13T19:17:13.786Z,12.80
2022-11-13T19:19:59.292Z,12.50
2022-11-13T19:22:44.907Z,11.83
2022-11-13T19:25:31.230Z,12.00
2022-11-13T19:28:17.734Z,12.80
2022-11-13T19:31:06.691Z,12.30
2022-11-13T19:33:55.042Z,11.97
2022-11-13T19:36:41.341Z,13.33
2022-11-13T19:39:26.661Z,13.50
2022-11-13T19:42:12.280Z,13.67
2022-11-13T19:44:59.114Z,12.10
2022-11-13T19:47:44.829Z,13.33
2022-11-13T19:50:30.706Z,13.33
2022-11-13T19:53:16.320Z,12.87
2022-11-13T19:56:02.529Z,12.70
2022-11-13T19:58:49.305Z,13.20
2022-11-13T20:01:36.440Z,13.23
2022-11-13T20:04:21.759Z,12.27
2022-11-13T20:07:07.505Z,12.83
2022-11-13T20:09:53.193Z,13.30
2022-11-13T20:12:38.734Z,12.00
2022-11-13T20:15:24.331Z,13.40
2022-11-13T20:18:11.057Z,13.10
2022-11-13T20:20:56.636Z,12.97
2022-11-13T20:23:42.148Z,13.13
2022-11-13T20:26:28.299Z,13.23
2022-11-13T20:29:13.884Z,13.17
2022-11-13T20:31:59.240Z,13.13
2022-11-13T20:34:46.141Z,13.20
2022-11-13T20:37:31.780Z,12.60
2022-11-13T20:40:17.769Z,12.60
2022-11-13T20:43:03.113Z,12.10
2022-11-13T20:45:48.714Z,11.90
2022-11-13T20:48:34.448Z,11.97
2022-11-13T20:51:22.862Z,11.00
2022-11-13T20:54:08.577Z,10.40
2022-11-13T20:56:54.199Z,9.63
2022-11-13T20:59:39.617Z,9.83
2022-11-13T21:02:25.399Z,8.97
2022-11-13T21:05:11.674Z,9.10
2022-11-13T21:07:58.715Z,9.37
2022-11-13T21:10:44.221Z,9.50
2022-11-13T21:13:31.144Z,10.00
2022-11-13T21:16:18.117Z,9.37
2022-11-13T21:19:03.521Z,9.13
2022-11-13T21:21:48.662Z,8.93
2022-11-13T21:24:37.845Z,9.37
2022-11-13T21:27:23.231Z,9.27
2022-11-13T21:30:09.541Z,8.63
2022-11-13T21:32:57.314Z,8.93
2022-11-13T21:35:42.629Z,8.93
2022-11-13T21:38:28.265Z,8.60
2022-11-13T21:41:21.267Z,8.90
2022-11-13T21:44:08.540Z,8.93
2022-11-13T21:46:54.423Z,9.17
2022-11-13T21:49:39.795Z,8.73
2022-11-13T21:52:25.382Z,8.53
2022-11-13T21:55:11.357Z,8.60
2022-11-13T21:57:58.147Z,8.77
2022-11-13T22:00:44.360Z,8.27
2022-11-13T22:03:30.094Z,8.63
2022-11-13T22:06:18.365Z,8.50
2022-11-13T22:09:06.368Z,8.47
2022-11-13T22:11:51.860Z,8.70
2022-11-13T22:14:38.582Z,8.00
2022-11-13T22:17:23.873Z,8.70
2022-11-13T22:20:09.640Z,7.50
2022-11-13T22:22:55.331Z,7.57
2022-11-13T22:25:41.278Z,8.13
2022-11-13T22:28:27.394Z,8.47
2022-11-13T22:31:16.254Z,8.20
2022-11-13T22:34:02.172Z,7.43
2022-11-13T22:36:47.767Z,7.43
2022-11-13T22:39:33.452Z,7.70
2022-11-13T22:42:18.892Z,8.13
2022-11-13T22:45:22.415Z,7.53
2022-11-13T22:48:11.575Z,7.30
2022-11-13T22:51:02.708Z,7.87
2022-11-13T22:53:50.270Z,7.13
2022-11-13T22:56:37.651Z,7.20
2022-11-13T22:59:23.294Z,7.90
2022-11-13T23:02:09.195Z,7.77
2022-11-13T23:04:55.972Z,8.10
2022-11-13T23:07:41.353Z,8.07
2022-11-13T23:10:26.883Z,7.40
2022-11-13T23:13:12.396Z,8.03
2022-11-13T23:15:58.050Z,7.50
2022-11-13T23:18:43.845Z,7.90
2022-11-13T23:21:31.126Z,7.10
2022-11-13T23:24:16.631Z,6.57
2022-11-13T23:27:02.505Z,7.63
2022-11-13T23:29:50.308Z,6.97
2022-11-13T23:32:35.891Z,7.17
2022-11-13T23:35:21.821Z,8.00
2022-11-13T23:38:09.002Z,7.30
2022-11-13T23:40:54.789Z,6.60
2022-11-13T23:44:07.548Z,7.40
2022-11-13T23:46:46.149Z,6.97
2022-11-13T23:49:31.756Z,7.00
2022-11-13T23:52:17.592Z,6.50
2022-11-13T23:55:04.710Z,6.60
2022-11-13T23:57:56.584Z,6.80
